createdAt,value
2022-08-05T00:00:06.086Z,99028.28
2022-08-05T00:00:18.840Z,99019.91
2022-08-05T00:00:30.875Z,99023.09
2022-08-05T00:00:47.281Z,99028.91
2022-08-05T00:01:20.585Z,99023.97
2022-08-05T00:01:36.549Z,99016.97
2022-08-05T00:02:07.839Z,99020.50
2022-08-05T00:02:24.029Z,99018.31
2022-08-05T00:02:37.828Z,99022.63
2022-08-05T00:02:56.081Z,99020.97
2022-08-05T00:03:08.068Z,99024.28
2022-08-05T00:03:27.851Z,99020.31
2022-08-05T00:03:44.526Z,99020.66
2022-08-05T00:03:57.662Z,99016.16
2022-08-05T00:04:09.793Z,99021.31
2022-08-05T00:04:25.476Z,99021.69
2022-08-05T00:04:37.510Z,99017.72
2022-08-05T00:04:55.235Z,99019.06
2022-08-05T00:05:08.253Z,99022.69
2022-08-05T00:06:04.935Z,99024.03
2022-08-05T00:06:29.301Z,99022.88
2022-08-05T00:06:45.164Z,99034.03
2022-08-05T00:06:59.851Z,99028.03
2022-08-05T00:07:26.763Z,99028.72
2022-08-05T00:07:59.644Z,99031.06
2022-08-05T00:08:34.182Z,99033.38
2022-08-05T00:08:45.112Z,99031.38
2022-08-05T00:09:00.361Z,99030.03
2022-08-05T00:09:15.689Z,99032.03
2022-08-05T00:09:31.728Z,99037.38
2022-08-05T00:09:44.069Z,99042.03
2022-08-05T00:09:56.022Z,99036.03
2022-08-05T00:10:08.416Z,99038.00
2022-08-05T00:10:22.919Z,99042.50
2022-08-05T00:10:39.418Z,99043.34
2022-08-05T00:10:51.371Z,99045.66
2022-08-05T00:11:20.308Z,99044.66
2022-08-05T00:11:48.751Z,99039.00
2022-08-05T00:12:01.668Z,99049.91
2022-08-05T00:12:14.176Z,99051.75
2022-08-05T00:12:26.272Z,99055.22
2022-08-05T00:12:55.623Z,99052.84
2022-08-05T00:13:08.858Z,99052.06
2022-08-05T00:13:39.273Z,99057.06
2022-08-05T00:13:52.920Z,99057.91
2022-08-05T00:14:12.796Z,99048.91
2022-08-05T00:14:31.397Z,99061.38
2022-08-05T00:14:43.558Z,99050.91
2022-08-05T00:14:55.808Z,99056.22
2022-08-05T00:15:56.202Z,99051.53
2022-08-05T00:15:56.412Z,99056.72
2022-08-05T00:16:13.897Z,99056.91
2022-08-05T00:16:35.272Z,99047.25
2022-08-05T00:16:53.240Z,99055.91
2022-08-05T00:17:05.900Z,99056.59
2022-08-05T00:17:31.875Z,99063.41
2022-08-05T00:17:44.084Z,99052.94
2022-08-05T00:17:59.965Z,99059.25
2022-08-05T00:18:21.331Z,99056.59
2022-08-05T00:18:33.855Z,99052.88
2022-08-05T00:18:48.146Z,99063.53
2022-08-05T00:19:00.709Z,99058.88
2022-08-05T00:19:12.894Z,99058.72
2022-08-05T00:19:33.537Z,99059.56
2022-08-05T00:20:02.352Z,99072.41
2022-08-05T00:20:14.812Z,99061.41
2022-08-05T00:20:32.406Z,99066.25
2022-08-05T00:20:44.607Z,99068.13
2022-08-05T00:21:00.936Z,99074.53
2022-08-05T00:21:14.640Z,99068.78
2022-08-05T00:21:26.684Z,99062.16
2022-08-05T00:21:42.808Z,99064.34
2022-08-05T00:21:54.773Z,99063.19
2022-08-05T00:22:06.695Z,99062.03
2022-08-05T00:22:23.132Z,99062.56
2022-08-05T00:22:36.502Z,99065.88
2022-08-05T00:22:57.369Z,99066.41
2022-08-05T00:23:13.287Z,99066.75
2022-08-05T00:23:44.693Z,99068.44
2022-08-05T00:24:09.940Z,99079.19
2022-08-05T00:24:24.528Z,99073.47
2022-08-05T00:24:36.969Z,99071.16
2022-08-05T00:24:55.082Z,99074.16
2022-08-05T00:25:08.398Z,99072.19
2022-08-05T00:25:24.672Z,99081.44
2022-08-05T00:25:45.344Z,99086.75
2022-08-05T00:25:58.270Z,99086.69
2022-08-05T00:26:11.123Z,99083.44
2022-08-05T00:26:23.177Z,99085.03
2022-08-05T00:26:35.108Z,99079.63
2022-08-05T00:26:51.785Z,99091.63
2022-08-05T00:27:10.452Z,99093.84
2022-08-05T00:27:36.171Z,99100.91
2022-08-05T00:27:48.601Z,99093.28
2022-08-05T00:28:02.887Z,99092.00
2022-08-05T00:28:15.645Z,99087.09
2022-08-05T00:28:33.507Z,99089.13
2022-08-05T00:28:46.183Z,99090.13
2022-08-05T00:28:58.155Z,99083.50
2022-08-05T00:29:10.133Z,99090.03
2022-08-05T00:29:22.674Z,99080.22
2022-08-05T00:29:38.083Z,99083.56
2022-08-05T00:29:50.444Z,99092.22
2022-08-05T00:30:03.297Z,99091.88
2022-08-05T00:30:15.458Z,99087.38
2022-08-05T00:30:29.315Z,99091.59
2022-08-05T00:30:44.380Z,99088.72
2022-08-05T00:31:05.122Z,99093.22
2022-08-05T00:31:53.349Z,99097.38
2022-08-05T00:32:10.150Z,99097.25
2022-08-05T00:32:25.861Z,99097.59
2022-08-05T00:32:37.898Z,99102.59
2022-08-05T00:32:52.442Z,99095.28
2022-08-05T00:33:05.691Z,99096.44
2022-08-05T00:34:55.374Z,99101.63
2022-08-05T00:34:56.350Z,99099.28
2022-08-05T00:34:56.408Z,99101.47
2022-08-05T00:35:07.525Z,99094.63
2022-08-05T00:35:20.289Z,99095.31
2022-08-05T00:35:33.222Z,99090.84
2022-08-05T00:35:47.985Z,99095.31
2022-08-05T00:37:11.169Z,99096.66
2022-08-05T00:37:12.405Z,99096.69
2022-08-05T00:37:21.220Z,99097.38
2022-08-05T00:37:50.682Z,99100.72
2022-08-05T00:38:09.471Z,99099.41
2022-08-05T00:38:28.643Z,99101.41
2022-08-05T00:38:40.943Z,99100.09
2022-08-05T00:38:53.035Z,99097.06
2022-08-05T00:39:05.217Z,99102.91
2022-08-05T00:39:25.571Z,99093.09
2022-08-05T00:39:44.212Z,99100.09
2022-08-05T00:40:10.009Z,99102.41
2022-08-05T00:40:28.374Z,99097.75
2022-08-05T00:40:53.440Z,99097.75
2022-08-05T00:41:07.453Z,99090.78
2022-08-05T00:41:51.578Z,99096.09
2022-08-05T00:42:04.018Z,99089.09
2022-08-05T00:42:31.692Z,99098.78
2022-08-05T00:42:44.532Z,99097.44
2022-08-05T00:43:02.679Z,99099.75
2022-08-05T00:43:20.298Z,99097.97
2022-08-05T00:43:47.371Z,99096.13
2022-08-05T00:44:02.135Z,99100.44
2022-08-05T00:44:14.189Z,99103.75
2022-08-05T00:44:31.018Z,99100.13
2022-08-05T00:44:43.568Z,99099.78
2022-08-05T00:44:55.724Z,99102.28
2022-08-05T00:45:11.528Z,99099.47
2022-08-05T00:45:38.242Z,99107.44
2022-08-05T00:45:51.384Z,99098.28
2022-08-05T00:46:04.802Z,99106.13
2022-08-05T00:46:16.783Z,99106.13
2022-08-05T00:46:42.535Z,99107.63
2022-08-05T00:47:03.636Z,99105.63
2022-08-05T00:47:17.567Z,99101.75
2022-08-05T00:47:31.713Z,99105.09
2022-08-05T00:48:05.934Z,99101.75
2022-08-05T00:48:31.271Z,99109.09
2022-08-05T00:48:50.640Z,99100.63
2022-08-05T00:49:03.738Z,99102.78
2022-08-05T00:49:19.144Z,99104.63
2022-08-05T00:49:32.824Z,99099.09
2022-08-05T00:49:56.551Z,99101.47
2022-08-05T00:50:10.867Z,99105.78
2022-08-05T00:50:25.446Z,99104.94
2022-08-05T00:50:41.261Z,99106.63
2022-08-05T00:50:54.148Z,99103.78
2022-08-05T00:51:08.785Z,99096.94
2022-08-05T00:51:51.100Z,99107.28
2022-08-05T00:51:53.959Z,99100.78
2022-08-05T00:52:06.988Z,99099.78
2022-08-05T00:52:28.233Z,99102.13
2022-08-05T00:52:40.780Z,99099.09
2022-08-05T00:52:55.049Z,99100.63
2022-08-05T00:53:09.860Z,99098.44
2022-08-05T00:54:00.943Z,99096.44
2022-08-05T00:54:14.185Z,99101.09
2022-08-05T00:54:30.082Z,99099.09
2022-08-05T00:54:42.077Z,99098.63
2022-08-05T00:54:56.152Z,99104.44
2022-08-05T00:55:08.368Z,99099.97
2022-08-05T00:55:20.809Z,99106.13
2022-08-05T00:55:41.982Z,99103.75
2022-08-05T00:55:55.054Z,99096.78
2022-08-05T00:56:08.204Z,99105.59
2022-08-05T00:56:22.749Z,99102.13
2022-08-05T00:56:35.033Z,99096.44
2022-08-05T00:56:51.365Z,99100.78
2022-08-05T00:57:04.440Z,99103.91
2022-08-05T00:57:16.807Z,99104.41
2022-08-05T00:57:38.335Z,99105.44
2022-08-05T00:58:05.182Z,99110.13
2022-08-05T00:58:19.115Z,99105.09
2022-08-05T00:58:31.376Z,99101.09
2022-08-05T00:58:44.980Z,99103.28
2022-08-05T00:58:57.124Z,99109.44
2022-08-05T00:59:12.223Z,99104.28
2022-08-05T00:59:24.163Z,99101.47
2022-08-05T00:59:44.682Z,99104.78
2022-08-05T00:59:57.516Z,99104.00
2022-08-05T01:00:11.224Z,99107.84
2022-08-05T01:00:25.984Z,99108.63
2022-08-05T01:00:39.518Z,99108.13
2022-08-05T01:00:51.659Z,99101.28
2022-08-05T01:01:08.713Z,99108.13
2022-08-05T01:01:24.777Z,99105.78
2022-08-05T01:01:53.169Z,99102.50
2022-08-05T01:02:05.331Z,99099.19
2022-08-05T01:02:20.819Z,99104.00
2022-08-05T01:02:36.354Z,99104.16
2022-08-05T01:02:50.195Z,99104.66
2022-08-05T01:03:02.210Z,99103.47
2022-08-05T01:03:22.981Z,99103.81
2022-08-05T01:03:35.316Z,99104.47
2022-08-05T01:03:49.943Z,99109.47
2022-08-05T01:04:03.182Z,99109.97
2022-08-05T01:04:26.989Z,99105.13
2022-08-05T01:04:42.279Z,99104.31
2022-08-05T01:04:54.277Z,99099.81
2022-08-05T01:05:10.154Z,99097.78
2022-08-05T01:05:22.632Z,99108.47
2022-08-05T01:05:35.300Z,99104.78
2022-08-05T01:05:47.252Z,99107.13
2022-08-05T01:05:59.215Z,99102.78
2022-08-05T01:06:15.295Z,99104.47
2022-08-05T01:06:32.618Z,99101.63
2022-08-05T01:06:48.793Z,99096.78
2022-08-05T01:07:01.008Z,99110.78
2022-08-05T01:07:17.862Z,99107.47
2022-08-05T01:07:31.650Z,99102.13
2022-08-05T01:08:40.050Z,99097.75
2022-08-05T01:08:40.620Z,99099.09
2022-08-05T01:08:47.756Z,99104.41
2022-08-05T01:09:00.523Z,99103.09
2022-08-05T01:09:15.138Z,99103.63
2022-08-05T01:09:31.840Z,99108.63
2022-08-05T01:09:43.890Z,99109.81
2022-08-05T01:09:56.594Z,99114.78
2022-08-05T01:10:12.083Z,99113.47
2022-08-05T01:10:35.316Z,99114.13
2022-08-05T01:10:59.225Z,99114.97
2022-08-05T01:11:22.629Z,99113.47
2022-08-05T01:11:39.612Z,99116.63
2022-08-05T01:11:55.693Z,99109.78
2022-08-05T01:12:18.444Z,99107.47
2022-08-05T01:12:31.096Z,99114.44
2022-08-05T01:13:05.228Z,99110.09
2022-08-05T01:13:22.427Z,99111.44
2022-08-05T01:13:58.538Z,99115.09
2022-08-05T01:14:28.085Z,99113.13
2022-08-05T01:14:48.635Z,99118.50
2022-08-05T01:15:35.480Z,99125.16
2022-08-05T01:15:47.870Z,99118.34
2022-08-05T01:16:04.927Z,99123.31
2022-08-05T01:16:38.010Z,99121.81
2022-08-05T01:16:59.910Z,99118.78
2022-08-05T01:17:29.162Z,99119.78
2022-08-05T01:17:53.616Z,99112.44
2022-08-05T01:18:12.563Z,99110.44
2022-08-05T01:18:34.081Z,99117.09
2022-08-05T01:18:56.407Z,99117.09
2022-08-05T01:19:46.166Z,99115.81
2022-08-05T01:20:27.132Z,99117.63
2022-08-05T01:21:22.835Z,99108.78
2022-08-05T01:21:51.170Z,99110.78
2022-08-05T01:22:18.866Z,99110.13
2022-08-05T01:22:51.513Z,99107.44
2022-08-05T01:23:14.399Z,99104.13
2022-08-05T01:23:39.590Z,99101.44
2022-08-05T01:24:05.362Z,99113.44
2022-08-05T01:24:49.995Z,99113.81
2022-08-05T01:25:40.681Z,99109.13
2022-08-05T01:26:07.136Z,99106.78
2022-08-05T01:26:33.948Z,99101.91
2022-08-05T01:27:17.594Z,99107.09
2022-08-05T01:28:05.966Z,99104.13
2022-08-05T01:28:37.553Z,99102.50
2022-08-05T01:28:57.965Z,99110.63
2022-08-05T01:29:28.515Z,99106.31
2022-08-05T01:29:47.028Z,99108.13
2022-08-05T01:30:03.744Z,99102.47
2022-08-05T01:30:18.874Z,99104.13
2022-08-05T01:30:36.650Z,99101.63
2022-08-05T01:31:04.867Z,99103.44
2022-08-05T01:31:44.589Z,99108.97
2022-08-05T01:32:02.121Z,99105.16
2022-08-05T01:32:22.263Z,99104.66
2022-08-05T01:32:38.984Z,99104.81
2022-08-05T01:32:53.570Z,99109.13
2022-08-05T01:33:08.619Z,99104.13
2022-08-05T01:33:25.208Z,99103.94
2022-08-05T01:33:54.253Z,99108.78
2022-08-05T01:34:13.959Z,99104.78
2022-08-05T01:34:31.219Z,99101.94
2022-08-05T01:34:58.291Z,99109.09
2022-08-05T01:35:51.030Z,99107.91
2022-08-05T01:35:51.085Z,99107.44
2022-08-05T01:36:12.896Z,99106.09
2022-08-05T01:36:32.789Z,99110.28
2022-08-05T01:36:49.165Z,99107.09
2022-08-05T01:37:09.338Z,99110.09
2022-08-05T01:37:44.290Z,99114.44
2022-08-05T01:37:59.556Z,99108.28
2022-08-05T01:38:24.600Z,99116.13
2022-08-05T01:38:40.966Z,99114.75
2022-08-05T01:38:54.594Z,99110.41
2022-08-05T01:39:06.704Z,99112.41
2022-08-05T01:39:45.617Z,99110.78
2022-08-05T01:39:58.689Z,99118.81
2022-08-05T01:40:17.848Z,99111.81
2022-08-05T01:40:32.558Z,99115.97
2022-08-05T01:40:46.602Z,99119.47
2022-08-05T01:41:01.948Z,99113.94
2022-08-05T01:41:17.280Z,99107.47
2022-08-05T01:41:36.687Z,99112.78
2022-08-05T01:41:51.082Z,99118.97
2022-08-05T01:42:09.757Z,99114.44
2022-08-05T01:42:23.947Z,99111.44
2022-08-05T01:42:37.937Z,99114.44
2022-08-05T01:42:54.673Z,99117.47
2022-08-05T01:43:08.046Z,99118.13
2022-08-05T01:43:35.722Z,99111.44
2022-08-05T01:43:49.264Z,99117.63
2022-08-05T01:44:02.849Z,99105.09
2022-08-05T01:44:16.439Z,99114.44
2022-08-05T01:44:35.333Z,99117.78
2022-08-05T01:44:54.116Z,99105.09
2022-08-05T01:45:08.134Z,99109.44
2022-08-05T01:45:21.081Z,99107.25
2022-08-05T01:45:34.697Z,99097.41
2022-08-05T01:45:47.176Z,99107.72
2022-08-05T01:46:16.450Z,99107.41
2022-08-05T01:46:46.207Z,99109.72
2022-08-05T01:47:00.934Z,99108.72
2022-08-05T01:47:17.248Z,99103.38
2022-08-05T01:47:39.216Z,99104.19
2022-08-05T01:47:55.565Z,99106.88
2022-08-05T01:48:10.490Z,99109.38
2022-08-05T01:48:23.773Z,99100.34
2022-08-05T01:48:39.034Z,99102.84
2022-08-05T01:48:55.522Z,99100.69
2022-08-05T01:49:22.642Z,99107.66
2022-08-05T01:50:01.886Z,99102.69
2022-08-05T01:50:15.121Z,99102.69
2022-08-05T01:50:30.940Z,99092.34
2022-08-05T01:50:50.963Z,99102.69
2022-08-05T01:51:11.929Z,99092.34
2022-08-05T01:51:29.289Z,99091.38
2022-08-05T01:51:42.899Z,99088.06
2022-08-05T01:52:17.321Z,99088.88
2022-08-05T01:52:34.545Z,99094.38
2022-08-05T01:52:49.849Z,99096.88
2022-08-05T01:53:15.093Z,99095.69
2022-08-05T01:53:56.988Z,99092.69
2022-08-05T01:54:13.546Z,99089.00
2022-08-05T01:54:46.074Z,99092.34
2022-08-05T01:55:02.270Z,99090.38
2022-08-05T01:55:20.007Z,99088.41
2022-08-05T01:55:36.260Z,99088.75
2022-08-05T01:55:50.533Z,99085.91
2022-08-05T01:56:04.540Z,99088.41
2022-08-05T01:58:09.564Z,99081.06
2022-08-05T01:58:12.869Z,99085.06
2022-08-05T01:58:14.681Z,99088.13
2022-08-05T01:58:18.883Z,99086.38
2022-08-05T01:58:44.927Z,99084.72
2022-08-05T01:58:59.108Z,99084.09
2022-08-05T01:59:15.409Z,99085.75
2022-08-05T01:59:30.788Z,99085.56
2022-08-05T01:59:47.080Z,99083.75
2022-08-05T02:00:00.921Z,99083.41
2022-08-05T02:00:14.069Z,99081.72
2022-08-05T02:00:30.421Z,99083.41
2022-08-05T02:00:50.949Z,99090.41
2022-08-05T02:01:05.473Z,99082.22
2022-08-05T02:01:24.684Z,99086.56
2022-08-05T02:01:40.082Z,99089.56
2022-08-05T02:01:54.818Z,99087.72
2022-08-05T02:02:11.926Z,99093.91
2022-08-05T02:02:30.816Z,99093.59
2022-08-05T02:02:54.867Z,99095.75
2022-08-05T02:03:24.417Z,99094.09
2022-08-05T02:03:48.843Z,99097.09
2022-08-05T02:04:04.267Z,99093.75
2022-08-05T02:04:19.452Z,99091.78
2022-08-05T02:04:36.539Z,99100.31
2022-08-05T02:04:54.796Z,99099.63
2022-08-05T02:05:11.701Z,99096.44
2022-08-05T02:05:30.041Z,99097.75
2022-08-05T02:05:48.273Z,99101.63
2022-08-05T02:06:03.773Z,99098.78
2022-08-05T02:06:38.278Z,99093.59
2022-08-05T02:06:50.893Z,99087.59
2022-08-05T02:07:03.545Z,99092.94
2022-08-05T02:07:22.132Z,99091.09
2022-08-05T02:07:36.232Z,99092.75
2022-08-05T02:08:00.134Z,99088.91
2022-08-05T02:08:13.878Z,99086.75
2022-08-05T02:08:54.946Z,99091.06
2022-08-05T02:09:10.908Z,99086.38
2022-08-05T02:09:26.928Z,99081.41
2022-08-05T02:09:40.280Z,99088.38
2022-08-05T02:09:52.530Z,99086.56
2022-08-05T02:10:07.838Z,99087.56
2022-08-05T02:10:20.359Z,99086.06
2022-08-05T02:10:49.082Z,99086.56
2022-08-05T02:11:06.850Z,99084.91
2022-08-05T02:11:24.119Z,99085.75
2022-08-05T02:11:55.442Z,99081.06
2022-08-05T02:12:25.274Z,99080.09
2022-08-05T02:12:45.053Z,99082.09
2022-08-05T02:13:17.129Z,99086.06
2022-08-05T02:13:53.800Z,99079.38
2022-08-05T02:14:13.107Z,99092.69
2022-08-05T02:14:33.376Z,99083.66
2022-08-05T02:14:59.091Z,99084.53
2022-08-05T02:15:33.267Z,99087.69
2022-08-05T02:15:53.884Z,99094.06
2022-08-05T02:16:16.614Z,99091.38
2022-08-05T02:16:44.393Z,99089.69
2022-08-05T02:17:03.719Z,99095.03
2022-08-05T02:18:27.916Z,99094.22
2022-08-05T02:18:30.965Z,99085.69
2022-08-05T02:18:47.958Z,99089.66
2022-08-05T02:19:11.658Z,99094.53
2022-08-05T02:19:27.367Z,99093.69
2022-08-05T02:19:47.403Z,99092.03
2022-08-05T02:20:03.636Z,99097.38
2022-08-05T02:20:22.132Z,99103.53
2022-08-05T02:20:53.560Z,99100.38
2022-08-05T02:21:16.079Z,99099.06
2022-08-05T02:21:43.544Z,99100.75
2022-08-05T02:22:01.424Z,99109.75
2022-08-05T02:22:26.552Z,99098.22
2022-08-05T02:22:48.075Z,99101.44
2022-08-05T02:23:05.580Z,99101.44
2022-08-05T02:23:26.053Z,99107.91
2022-08-05T02:23:42.438Z,99104.59
2022-08-05T02:23:59.496Z,99103.09
2022-08-05T02:24:18.441Z,99103.25
2022-08-05T02:24:36.856Z,99102.44
2022-08-05T02:24:53.869Z,99101.75
2022-08-05T02:25:12.851Z,99102.44
2022-08-05T02:25:33.236Z,99100.75
2022-08-05T02:25:50.031Z,99100.75
2022-08-05T02:26:06.341Z,99104.41
2022-08-05T02:26:27.747Z,99097.44
2022-08-05T02:26:53.985Z,99095.75
2022-08-05T02:27:10.612Z,99095.75
2022-08-05T02:27:30.019Z,99098.41
2022-08-05T02:27:58.586Z,99096.94
2022-08-05T02:28:14.536Z,99098.78
2022-08-05T02:28:33.064Z,99096.94
2022-08-05T02:28:49.920Z,99093.25
2022-08-05T02:29:02.716Z,99096.09
2022-08-05T02:29:26.091Z,99099.75
2022-08-05T02:29:59.782Z,99107.09
2022-08-05T02:30:13.168Z,99094.28
2022-08-05T02:30:30.505Z,99096.13
2022-08-05T02:30:54.250Z,99102.78
2022-08-05T02:31:21.108Z,99099.44
2022-08-05T02:31:35.672Z,99109.66
2022-08-05T02:31:50.247Z,99099.81
2022-08-05T02:32:04.851Z,99106.78
2022-08-05T02:32:24.219Z,99105.13
2022-08-05T02:32:43.151Z,99110.13
2022-08-05T02:32:58.612Z,99112.31
2022-08-05T02:33:15.045Z,99113.47
2022-08-05T02:33:40.714Z,99114.47
2022-08-05T02:33:58.226Z,99108.13
2022-08-05T02:34:14.083Z,99107.13
2022-08-05T02:34:29.931Z,99102.63
2022-08-05T02:34:45.833Z,99103.44
2022-08-05T02:35:14.156Z,99109.97
2022-08-05T02:35:33.306Z,99110.97
2022-08-05T02:35:57.621Z,99106.78
2022-08-05T02:36:16.282Z,99104.78
2022-08-05T02:36:31.850Z,99110.78
2022-08-05T02:36:50.797Z,99118.28
2022-08-05T02:37:05.179Z,99113.63
2022-08-05T02:37:18.768Z,99114.44
2022-08-05T02:37:34.794Z,99110.94
2022-08-05T02:37:53.791Z,99117.13
2022-08-05T02:38:09.206Z,99118.13
2022-08-05T02:38:22.601Z,99121.78
2022-08-05T02:38:42.899Z,99128.47
2022-08-05T02:38:57.586Z,99122.97
2022-08-05T02:39:10.873Z,99118.47
2022-08-05T02:39:24.283Z,99130.81
2022-08-05T02:39:41.300Z,99129.44
2022-08-05T02:39:59.421Z,99126.13
2022-08-05T02:40:12.890Z,99131.66
2022-08-05T02:40:26.119Z,99130.63
2022-08-05T02:40:43.458Z,99134.47
2022-08-05T02:40:57.937Z,99133.47
2022-08-05T02:41:17.054Z,99132.13
2022-08-05T02:41:43.140Z,99132.31
2022-08-05T02:42:06.787Z,99129.66
2022-08-05T02:42:27.624Z,99133.47
2022-08-05T02:42:44.726Z,99142.63
2022-08-05T02:43:07.314Z,99136.66
2022-08-05T02:43:22.064Z,99133.16
2022-08-05T02:43:34.545Z,99139.16
2022-08-05T02:44:12.374Z,99136.81
2022-08-05T02:44:27.277Z,99132.66
2022-08-05T02:44:40.128Z,99134.50
2022-08-05T02:44:55.077Z,99142.50
2022-08-05T02:45:09.456Z,99141.66
2022-08-05T02:45:25.262Z,99134.31
2022-08-05T02:45:52.519Z,99137.66
2022-08-05T02:46:06.764Z,99136.47
2022-08-05T02:46:27.731Z,99129.16
2022-08-05T02:46:58.626Z,99139.81
2022-08-05T02:47:14.841Z,99141.16
2022-08-05T02:47:58.663Z,99137.81
2022-08-05T02:48:11.419Z,99141.47
2022-08-05T02:48:29.766Z,99136.31
2022-08-05T02:48:42.245Z,99139.81
2022-08-05T02:48:56.288Z,99131.81
2022-08-05T02:49:11.065Z,99143.47
2022-08-05T02:49:24.265Z,99137.00
2022-08-05T02:49:42.281Z,99138.13
2022-08-05T02:49:55.645Z,99142.13
2022-08-05T02:50:08.811Z,99143.81
2022-08-05T02:50:24.966Z,99140.13
2022-08-05T02:50:37.999Z,99143.81
2022-08-05T02:50:58.556Z,99139.47
2022-08-05T02:51:13.084Z,99142.13
2022-08-05T02:51:42.381Z,99144.13
2022-08-05T02:52:02.646Z,99149.16
2022-08-05T02:52:25.891Z,99147.16
2022-08-05T02:52:45.646Z,99143.66
2022-08-05T02:52:57.712Z,99147.97
2022-08-05T02:53:11.804Z,99145.16
2022-08-05T02:53:39.538Z,99150.81
2022-08-05T02:53:54.777Z,99142.13
2022-08-05T02:54:07.423Z,99154.13
2022-08-05T02:54:36.040Z,99149.81
2022-08-05T02:54:52.071Z,99151.31
2022-08-05T02:55:08.585Z,99158.31
2022-08-05T02:55:54.326Z,99152.13
2022-08-05T02:56:00.027Z,99154.81
2022-08-05T02:56:15.729Z,99153.16
2022-08-05T02:56:31.264Z,99153.16
2022-08-05T02:56:45.956Z,99158.50
2022-08-05T02:56:59.842Z,99160.13
2022-08-05T02:58:19.865Z,99157.31
2022-08-05T02:58:20.022Z,99159.16
2022-08-05T02:58:23.019Z,99157.81
2022-08-05T02:58:43.925Z,99159.66
2022-08-05T02:58:56.458Z,99157.31
2022-08-05T02:59:13.652Z,99155.81
2022-08-05T02:59:27.877Z,99155.66
2022-08-05T02:59:48.107Z,99158.50
2022-08-05T03:00:02.916Z,99162.50
2022-08-05T03:00:15.007Z,99165.81
2022-08-05T03:00:28.155Z,99168.50
2022-08-05T03:00:41.052Z,99164.50
2022-08-05T03:01:02.002Z,99168.13
2022-08-05T03:01:19.688Z,99165.47
2022-08-05T03:01:35.052Z,99163.63
2022-08-05T03:01:51.881Z,99161.16
2022-08-05T03:02:04.693Z,99162.97
2022-08-05T03:02:20.484Z,99165.47
2022-08-05T03:02:36.780Z,99163.16
2022-08-05T03:02:49.505Z,99159.47
2022-08-05T03:03:03.617Z,99163.63
2022-08-05T03:03:23.524Z,99160.13
2022-08-05T03:04:02.821Z,99161.81
2022-08-05T03:04:15.791Z,99155.31
2022-08-05T03:04:29.060Z,99161.47
2022-08-05T03:04:43.665Z,99154.50
2022-08-05T03:04:57.950Z,99156.97
2022-08-05T03:05:13.640Z,99156.13
2022-08-05T03:06:53.880Z,99156.81
2022-08-05T03:06:54.729Z,99154.97
2022-08-05T03:06:54.923Z,99152.50
2022-08-05T03:07:03.970Z,99155.63
2022-08-05T03:07:24.680Z,99157.63
2022-08-05T03:08:06.910Z,99156.31
2022-08-05T03:08:26.922Z,99155.16
2022-08-05T03:08:43.139Z,99158.81
2022-08-05T03:08:55.493Z,99152.66
2022-08-05T03:09:12.131Z,99164.13
2022-08-05T03:09:37.634Z,99155.81
2022-08-05T03:09:51.962Z,99155.81
2022-08-05T03:10:04.972Z,99157.81
2022-08-05T03:10:21.968Z,99156.81
2022-08-05T03:10:36.986Z,99159.81
2022-08-05T03:11:01.066Z,99159.81
2022-08-05T03:11:56.316Z,99160.13
2022-08-05T03:11:58.444Z,99155.63
2022-08-05T03:12:28.709Z,99158.13
2022-08-05T03:12:41.249Z,99165.97
2022-08-05T03:13:16.799Z,99160.13
2022-08-05T03:13:51.195Z,99162.97
2022-08-05T03:14:02.819Z,99161.81
2022-08-05T03:14:15.403Z,99154.81
2022-08-05T03:14:27.350Z,99161.31
2022-08-05T03:14:46.166Z,99163.81
2022-08-05T03:15:00.423Z,99163.63
2022-08-05T03:15:12.608Z,99162.81
2022-08-05T03:15:24.799Z,99158.13
2022-08-05T03:15:36.882Z,99161.81
2022-08-05T03:15:50.203Z,99160.13
2022-08-05T03:16:03.950Z,99159.31
2022-08-05T03:16:16.543Z,99161.81
2022-08-05T03:16:31.795Z,99158.13
2022-08-05T03:16:43.907Z,99160.66
2022-08-05T03:16:55.887Z,99158.97
2022-08-05T03:17:09.162Z,99157.63
2022-08-05T03:17:21.632Z,99155.63
2022-08-05T03:17:34.464Z,99155.81
2022-08-05T03:17:55.926Z,99153.31
2022-08-05T03:18:09.483Z,99156.13
2022-08-05T03:18:24.621Z,99158.66
2022-08-05T03:18:42.590Z,99154.50
2022-08-05T03:18:59.599Z,99155.47
2022-08-05T03:19:17.098Z,99153.81
2022-08-05T03:19:45.730Z,99154.44
2022-08-05T03:19:58.695Z,99152.94
2022-08-05T03:20:11.232Z,99152.75
2022-08-05T03:20:26.256Z,99150.09
2022-08-05T03:20:38.642Z,99151.78
2022-08-05T03:21:00.512Z,99148.78
2022-08-05T03:21:12.798Z,99150.50
2022-08-05T03:21:28.919Z,99150.50
2022-08-05T03:21:48.921Z,99143.44
2022-08-05T03:22:01.784Z,99143.44
2022-08-05T03:22:19.051Z,99143.44
2022-08-05T03:22:49.779Z,99143.97
2022-08-05T03:23:04.999Z,99144.81
2022-08-05T03:23:17.648Z,99142.81
2022-08-05T03:23:29.917Z,99150.81
2022-08-05T03:23:43.526Z,99140.81
2022-08-05T03:23:58.109Z,99142.50
2022-08-05T03:24:10.400Z,99140.50
2022-08-05T03:24:30.052Z,99143.16
2022-08-05T03:24:52.080Z,99142.97
2022-08-05T03:25:32.044Z,99145.47
2022-08-05T03:26:03.563Z,99145.47
2022-08-05T03:26:30.551Z,99150.50
2022-08-05T03:26:42.882Z,99147.97
2022-08-05T03:27:01.626Z,99145.97
2022-08-05T03:27:14.297Z,99148.81
2022-08-05T03:27:39.435Z,99144.66
2022-08-05T03:28:00.771Z,99143.81
2022-08-05T03:28:14.123Z,99142.81
2022-08-05T03:28:27.329Z,99141.16
2022-08-05T03:28:39.386Z,99140.81
2022-08-05T03:28:53.038Z,99143.31
2022-08-05T03:29:07.271Z,99143.31
2022-08-05T03:29:24.497Z,99142.50
2022-08-05T03:30:08.292Z,99138.16
2022-08-05T03:30:22.334Z,99135.16
2022-08-05T03:30:46.585Z,99131.47
2022-08-05T03:31:01.578Z,99135.81
2022-08-05T03:31:25.858Z,99133.16
2022-08-05T03:31:56.211Z,99121.31
2022-08-05T03:32:10.256Z,99125.84
2022-08-05T03:32:30.997Z,99122.00
2022-08-05T03:32:43.795Z,99121.81
2022-08-05T03:32:55.736Z,99120.16
2022-08-05T03:33:08.002Z,99120.16
2022-08-05T03:33:20.817Z,99117.47
2022-08-05T03:33:50.849Z,99116.66
2022-08-05T03:34:04.460Z,99117.16
2022-08-05T03:34:16.670Z,99117.66
2022-08-05T03:34:28.927Z,99116.00
2022-08-05T03:34:41.894Z,99122.16
2022-08-05T03:34:54.327Z,99121.16
2022-08-05T03:35:09.014Z,99118.31
2022-08-05T03:35:22.130Z,99118.81
2022-08-05T03:35:41.111Z,99120.50
2022-08-05T03:35:56.946Z,99131.16
2022-08-05T03:36:11.906Z,99117.47
2022-08-05T03:36:30.417Z,99121.47
2022-08-05T03:36:42.736Z,99124.66
2022-08-05T03:36:54.689Z,99119.31
2022-08-05T03:37:07.292Z,99120.47
2022-08-05T03:37:23.548Z,99126.78
2022-08-05T03:37:44.759Z,99126.94
2022-08-05T03:38:02.572Z,99121.44
2022-08-05T03:38:16.064Z,99126.09
2022-08-05T03:38:33.262Z,99133.75
2022-08-05T03:38:52.502Z,99127.94
2022-08-05T03:39:12.931Z,99130.78
2022-08-05T03:39:27.157Z,99127.94
2022-08-05T03:39:58.795Z,99125.41
2022-08-05T03:40:13.041Z,99121.44
2022-08-05T03:40:31.961Z,99121.75
2022-08-05T03:40:47.186Z,99128.41
2022-08-05T03:40:59.755Z,99121.75
2022-08-05T03:41:16.983Z,99126.09
2022-08-05T03:41:38.605Z,99126.41
2022-08-05T03:41:57.925Z,99124.09
2022-08-05T03:42:09.850Z,99123.75
2022-08-05T03:42:21.820Z,99125.44
2022-08-05T03:42:41.547Z,99120.63
2022-08-05T03:43:58.363Z,99122.94
2022-08-05T03:44:09.597Z,99128.78
2022-08-05T03:44:11.096Z,99134.28
2022-08-05T03:44:24.835Z,99130.09
2022-08-05T03:44:41.057Z,99131.94